createdAt,value
2022-10-26T00:01:05.114Z,2.45
2022-10-26T00:03:32.963Z,2.30
2022-10-26T00:06:12.515Z,2.50
2022-10-26T00:08:39.950Z,2.38
2022-10-26T00:11:07.753Z,2.95
2022-10-26T00:13:35.237Z,2.53
2022-10-26T00:16:07.216Z,2.40
2022-10-26T00:18:33.898Z,2.30
2022-10-26T00:21:05.203Z,2.30
2022-10-26T00:23:32.736Z,2.00
2022-10-26T00:25:59.907Z,1.90
2022-10-26T00:28:27.327Z,1.80
2022-10-26T00:30:54.463Z,1.90
2022-10-26T00:33:21.448Z,1.90
2022-10-26T00:35:53.198Z,2.00
2022-10-26T00:38:20.202Z,1.83
2022-10-26T00:40:47.413Z,1.70
2022-10-26T00:43:38.978Z,1.77
2022-10-26T00:46:08.822Z,1.70
2022-10-26T00:48:40.136Z,1.65
2022-10-26T00:51:11.703Z,1.40
2022-10-26T00:53:38.824Z,1.50
2022-10-26T00:56:06.007Z,1.50
2022-10-26T00:58:34.545Z,1.40
2022-10-26T01:01:01.297Z,1.60
2022-10-26T01:03:29.118Z,1.40
2022-10-26T01:05:57.562Z,1.60
2022-10-26T01:08:25.709Z,1.50
2022-10-26T01:10:52.809Z,1.60
2022-10-26T01:13:20.100Z,1.45
2022-10-26T01:15:55.482Z,1.60
2022-10-26T01:18:35.948Z,1.63
2022-10-26T01:21:02.677Z,1.58
2022-10-26T01:24:03.397Z,1.45
2022-10-26T01:27:03.957Z,1.30
2022-10-26T01:29:52.049Z,1.40
2022-10-26T01:32:23.760Z,1.30
2022-10-26T01:35:08.495Z,1.33
2022-10-26T01:37:41.866Z,1.45
2022-10-26T01:40:21.949Z,1.30
2022-10-26T01:42:52.040Z,1.40
2022-10-26T01:45:19.433Z,1.60
2022-10-26T01:47:48.337Z,1.60
2022-10-26T01:50:16.808Z,1.70
2022-10-26T01:52:43.673Z,1.50
2022-10-26T01:55:39.201Z,1.40
2022-10-26T01:58:22.882Z,1.40
2022-10-26T02:01:13.908Z,1.30
2022-10-26T02:03:50.411Z,1.60
2022-10-26T02:06:40.722Z,1.30
2022-10-26T02:09:28.011Z,1.33
2022-10-26T02:11:55.740Z,1.10
2022-10-26T02:14:42.732Z,1.40
2022-10-26T02:17:20.662Z,1.30
2022-10-26T02:19:50.212Z,1.30
2022-10-26T02:22:16.918Z,1.42
2022-10-26T02:24:44.743Z,1.10
2022-10-26T02:27:17.737Z,1.33
2022-10-26T02:29:45.020Z,1.00
2022-10-26T02:32:12.997Z,1.20
2022-10-26T02:34:43.432Z,1.83
2022-10-26T02:37:11.724Z,1.30
2022-10-26T02:39:40.684Z,1.67
2022-10-26T02:42:09.412Z,1.30
2022-10-26T02:44:45.974Z,1.50
2022-10-26T02:47:13.424Z,1.60
2022-10-26T02:49:40.801Z,1.40
2022-10-26T02:52:19.634Z,1.42
2022-10-26T02:55:00.389Z,1.40
2022-10-26T02:57:39.781Z,2.00
2022-10-26T03:00:19.804Z,1.65
2022-10-26T03:02:53.027Z,1.50
2022-10-26T03:05:22.975Z,1.90
2022-10-26T03:07:49.804Z,1.50
2022-10-26T03:10:16.654Z,1.50
2022-10-26T03:12:43.541Z,1.40
2022-10-26T03:15:10.444Z,2.33
2022-10-26T03:17:37.157Z,2.80
2022-10-26T03:20:04.466Z,2.20
2022-10-26T03:22:31.228Z,1.70
2022-10-26T03:24:57.990Z,1.50
2022-10-26T03:27:24.836Z,1.70
2022-10-26T03:29:51.537Z,1.70
2022-10-26T03:32:18.462Z,1.90
2022-10-26T03:34:45.149Z,1.90
2022-10-26T03:37:12.084Z,1.70
2022-10-26T03:39:38.756Z,5.53
2022-10-26T03:42:05.532Z,2.60
2022-10-26T03:44:32.285Z,1.60
2022-10-26T03:46:58.973Z,1.90
2022-10-26T03:49:25.781Z,1.80
2022-10-26T03:51:52.506Z,1.90
2022-10-26T03:54:19.293Z,2.00
2022-10-26T03:56:46.013Z,2.00
2022-10-26T03:59:12.685Z,1.90
2022-10-26T04:01:40.100Z,2.20
2022-10-26T04:04:07.117Z,1.90
2022-10-26T04:06:33.920Z,1.80
2022-10-26T04:09:02.410Z,2.17
2022-10-26T04:11:29.897Z,1.73
2022-10-26T04:13:59.558Z,2.00
2022-10-26T04:16:30.978Z,2.05
2022-10-26T04:19:00.384Z,1.90
2022-10-26T04:21:27.125Z,2.03
2022-10-26T04:23:53.874Z,2.10
2022-10-26T04:26:20.761Z,2.13
2022-10-26T04:28:47.444Z,1.83
2022-10-26T04:31:14.189Z,2.13
2022-10-26T04:33:40.961Z,1.90
2022-10-26T04:36:08.197Z,1.70
2022-10-26T04:38:34.897Z,1.90
2022-10-26T04:41:01.882Z,2.00
2022-10-26T04:43:28.869Z,1.83
2022-10-26T04:45:57.197Z,2.05
2022-10-26T04:50:59.698Z,2.03
2022-10-26T04:53:26.978Z,2.20
2022-10-26T04:56:01.272Z,1.90
2022-10-26T04:58:28.759Z,2.17
2022-10-26T05:00:56.108Z,2.15
2022-10-26T05:03:22.932Z,2.00
2022-10-26T05:05:49.842Z,2.40
2022-10-26T05:08:16.624Z,1.88
2022-10-26T05:10:43.475Z,2.03
2022-10-26T05:13:10.939Z,2.20
2022-10-26T05:15:37.681Z,2.80
2022-10-26T05:18:05.735Z,2.00
2022-10-26T05:20:34.655Z,2.22
2022-10-26T05:23:07.330Z,2.80
2022-10-26T05:25:38.048Z,2.45
2022-10-26T05:28:08.445Z,2.10
2022-10-26T05:30:35.419Z,2.20
2022-10-26T05:33:03.369Z,2.70
2022-10-26T05:35:31.217Z,2.20
2022-10-26T05:37:58.412Z,2.30
2022-10-26T05:40:25.533Z,2.38
2022-10-26T05:42:52.908Z,2.20
2022-10-26T05:45:20.073Z,2.15
2022-10-26T05:47:47.354Z,2.30
2022-10-26T05:50:14.614Z,2.20
2022-10-26T05:52:43.289Z,2.50
2022-10-26T05:55:11.729Z,2.78
2022-10-26T05:57:39.274Z,2.53
2022-10-26T06:00:14.930Z,2.50
2022-10-26T06:03:32.678Z,2.60
2022-10-26T06:06:02.570Z,2.30
2022-10-26T06:08:32.283Z,2.50
2022-10-26T06:10:59.584Z,2.67
2022-10-26T06:13:26.742Z,2.17
2022-10-26T06:16:12.538Z,2.35
2022-10-26T06:18:59.529Z,2.40
2022-10-26T06:22:05.618Z,2.17
2022-10-26T06:24:44.391Z,2.60
2022-10-26T06:27:33.476Z,2.50
2022-10-26T06:30:11.768Z,2.95
2022-10-26T06:32:40.805Z,3.30
2022-10-26T06:35:10.218Z,2.90
2022-10-26T06:37:38.690Z,2.70
2022-10-26T06:40:06.804Z,3.10
2022-10-26T06:42:33.719Z,2.60
2022-10-26T06:45:00.722Z,2.60
2022-10-26T06:47:51.988Z,3.05
2022-10-26T06:50:37.672Z,2.70
2022-10-26T06:53:20.843Z,3.00
2022-10-26T06:55:50.072Z,2.80
2022-10-26T06:58:22.412Z,2.80
2022-10-26T07:00:51.229Z,2.70
2022-10-26T07:03:17.947Z,3.30
2022-10-26T07:05:45.378Z,3.05
2022-10-26T07:08:12.673Z,3.10
2022-10-26T07:10:39.853Z,3.10
2022-10-26T07:13:07.330Z,3.53
2022-10-26T07:15:35.542Z,3.00
2022-10-26T07:18:05.741Z,3.38
2022-10-26T07:20:37.860Z,2.60
2022-10-26T07:23:08.418Z,3.13
2022-10-26T07:25:38.837Z,3.00
2022-10-26T07:28:06.447Z,2.57
2022-10-26T07:30:33.585Z,2.90
2022-10-26T07:33:06.289Z,2.58
2022-10-26T07:35:34.227Z,2.47
2022-10-26T07:38:01.425Z,2.50
2022-10-26T07:40:28.916Z,2.58
2022-10-26T07:43:00.568Z,2.40
2022-10-26T07:45:28.756Z,2.60
2022-10-26T07:47:56.023Z,2.30
2022-10-26T07:50:23.577Z,2.43
2022-10-26T07:52:50.776Z,2.60
2022-10-26T07:55:19.057Z,2.20
2022-10-26T07:57:47.566Z,2.57
2022-10-26T08:00:17.965Z,3.10
2022-10-26T08:02:45.245Z,2.70
2022-10-26T08:05:11.960Z,2.80
2022-10-26T08:07:43.670Z,2.50
2022-10-26T08:10:11.561Z,2.60
2022-10-26T08:12:38.506Z,2.30
2022-10-26T08:15:05.709Z,2.37
2022-10-26T08:17:32.470Z,3.15
2022-10-26T08:19:59.328Z,2.50
2022-10-26T08:22:26.263Z,2.50
2022-10-26T08:24:52.952Z,3.15
2022-10-26T08:27:19.709Z,2.92
2022-10-26T08:29:46.412Z,2.70
2022-10-26T08:32:13.190Z,3.00
2022-10-26T08:34:39.954Z,2.90
2022-10-26T08:37:06.673Z,3.03
2022-10-26T08:39:33.507Z,3.22
2022-10-26T08:42:13.881Z,3.20
2022-10-26T08:44:48.427Z,3.40
2022-10-26T08:47:21.983Z,3.10
2022-10-26T08:50:11.177Z,3.22
2022-10-26T08:52:52.013Z,3.13
2022-10-26T08:55:23.705Z,2.70
2022-10-26T08:57:52.077Z,3.10
2022-10-26T09:00:25.074Z,2.80
2022-10-26T09:02:53.252Z,3.30
2022-10-26T09:05:37.072Z,3.40
2022-10-26T09:08:14.825Z,3.20
2022-10-26T09:10:58.676Z,3.22
2022-10-26T09:13:35.257Z,3.20
2022-10-26T09:16:10.789Z,3.45
2022-10-26T09:19:18.644Z,3.10
2022-10-26T09:22:24.304Z,3.50
2022-10-26T09:25:05.437Z,3.00
2022-10-26T09:27:43.464Z,3.38
2022-10-26T09:30:18.800Z,3.17
2022-10-26T09:32:48.579Z,3.30
2022-10-26T09:35:43.024Z,2.97
2022-10-26T09:38:27.731Z,2.95
2022-10-26T09:41:31.802Z,2.53
2022-10-26T09:44:29.286Z,3.27
2022-10-26T09:47:06.184Z,2.60
2022-10-26T09:49:48.699Z,2.80
2022-10-26T09:52:16.538Z,2.63
2022-10-26T09:54:43.680Z,2.50
2022-10-26T09:57:15.106Z,2.40
2022-10-26T09:59:42.512Z,2.55
2022-10-26T10:02:38.651Z,2.20
2022-10-26T10:05:49.746Z,2.78
2022-10-26T10:08:25.904Z,2.50
2022-10-26T10:11:13.053Z,2.60
2022-10-26T10:13:45.322Z,2.13
2022-10-26T10:16:23.772Z,3.00
2022-10-26T10:19:00.733Z,2.60
2022-10-26T10:21:44.780Z,2.65
2022-10-26T10:24:52.477Z,2.70
2022-10-26T10:27:19.747Z,3.00
2022-10-26T10:29:49.827Z,3.00
2022-10-26T10:32:27.046Z,2.70
2022-10-26T10:34:58.560Z,2.60
2022-10-26T10:37:39.574Z,2.40
2022-10-26T10:40:09.661Z,2.97
2022-10-26T10:42:40.243Z,2.75
2022-10-26T10:45:19.285Z,2.80
2022-10-26T10:47:59.370Z,3.72
2022-10-26T10:50:26.193Z,3.05
2022-10-26T10:52:53.198Z,3.10
2022-10-26T10:55:21.803Z,3.60
2022-10-26T10:58:24.834Z,3.50
2022-10-26T11:00:54.502Z,4.80
2022-10-26T11:03:45.808Z,7.75
2022-10-26T11:06:17.534Z,3.83
2022-10-26T11:08:54.494Z,3.35
2022-10-26T11:11:41.731Z,3.35
2022-10-26T11:14:17.047Z,3.35
2022-10-26T11:17:04.505Z,3.60
2022-10-26T11:19:55.161Z,3.80
2022-10-26T11:22:26.406Z,3.92
2022-10-26T11:25:22.791Z,3.88
2022-10-26T11:27:51.984Z,3.20
2022-10-26T11:30:27.507Z,3.40
2022-10-26T11:33:05.937Z,3.40
2022-10-26T11:35:38.713Z,3.53
2022-10-26T11:38:11.678Z,3.60
2022-10-26T11:40:53.056Z,2.90
2022-10-26T11:43:38.264Z,3.50
2022-10-26T11:46:30.415Z,3.47
2022-10-26T11:49:31.285Z,3.37
2022-10-26T11:52:17.587Z,3.50
2022-10-26T11:54:45.589Z,3.30
2022-10-26T11:57:14.369Z,3.20
2022-10-26T11:59:49.795Z,3.38
2022-10-26T12:02:24.790Z,3.10
2022-10-26T12:04:59.214Z,2.78
2022-10-26T12:07:35.854Z,3.00
2022-10-26T12:10:06.341Z,3.00
2022-10-26T12:12:53.269Z,3.03
2022-10-26T12:16:03.067Z,2.38
2022-10-26T12:18:54.421Z,2.85
2022-10-26T12:21:28.618Z,2.70
2022-10-26T12:24:23.815Z,2.90
2022-10-26T12:26:52.134Z,3.00
2022-10-26T12:29:30.894Z,3.00
2022-10-26T12:31:58.617Z,2.97
2022-10-26T12:34:49.309Z,2.75
2022-10-26T12:37:37.690Z,3.00
2022-10-26T12:40:40.671Z,3.05
2022-10-26T12:43:16.548Z,3.30
2022-10-26T12:45:45.296Z,2.65
2022-10-26T12:48:38.991Z,3.05
2022-10-26T12:51:21.730Z,2.67
2022-10-26T12:54:25.312Z,3.38
2022-10-26T12:56:57.842Z,3.25
2022-10-26T12:59:39.655Z,3.20
2022-10-26T13:02:18.605Z,2.97
2022-10-26T13:04:54.214Z,3.00
2022-10-26T13:07:22.620Z,2.90
2022-10-26T13:10:18.714Z,3.15
2022-10-26T13:13:00.301Z,3.00
2022-10-26T13:15:30.079Z,2.90
2022-10-26T13:18:18.166Z,2.95
2022-10-26T13:21:09.788Z,2.55
2022-10-26T13:23:46.566Z,2.92
2022-10-26T13:26:16.391Z,2.90
2022-10-26T13:28:50.856Z,2.90
2022-10-26T13:31:39.561Z,2.80
2022-10-26T13:34:26.560Z,2.80
2022-10-26T13:36:58.262Z,2.90
2022-10-26T13:39:30.505Z,2.90
2022-10-26T13:41:59.512Z,2.75
2022-10-26T13:44:29.097Z,2.50
2022-10-26T13:47:01.112Z,3.03
2022-10-26T13:49:38.152Z,3.38
2022-10-26T13:52:11.237Z,2.90
2022-10-26T13:54:42.885Z,3.20
2022-10-26T13:57:22.783Z,2.80
2022-10-26T13:59:51.298Z,2.78
2022-10-26T14:02:20.055Z,2.90
2022-10-26T14:05:10.222Z,2.72
2022-10-26T14:07:56.621Z,2.70
2022-10-26T14:10:36.299Z,2.90
2022-10-26T14:13:08.007Z,2.97
2022-10-26T14:15:36.392Z,3.20
2022-10-26T14:18:04.359Z,2.73
2022-10-26T14:20:32.162Z,3.10
2022-10-26T14:22:58.936Z,3.00
2022-10-26T14:25:41.731Z,3.15
2022-10-26T14:28:24.235Z,3.05
2022-10-26T14:30:51.619Z,2.80
2022-10-26T14:33:29.298Z,2.72
2022-10-26T14:35:56.850Z,2.67
2022-10-26T14:38:30.981Z,2.80
2022-10-26T14:40:58.417Z,2.83
2022-10-26T14:43:27.007Z,2.80
2022-10-26T14:45:54.482Z,3.00
2022-10-26T14:48:23.789Z,2.58
2022-10-26T14:51:18.981Z,2.50
2022-10-26T14:53:53.676Z,2.63
2022-10-26T14:56:24.072Z,2.73
2022-10-26T14:58:51.557Z,2.85
2022-10-26T15:01:30.405Z,3.00
2022-10-26T15:04:00.229Z,2.50
2022-10-26T15:06:35.537Z,2.90
2022-10-26T15:09:06.380Z,2.83
2022-10-26T15:11:34.897Z,2.97
2022-10-26T15:14:03.060Z,2.80
2022-10-26T15:16:34.094Z,2.90
2022-10-26T15:19:10.669Z,2.90
2022-10-26T15:21:42.208Z,2.83
2022-10-26T15:24:20.545Z,3.13
2022-10-26T15:26:47.922Z,3.67
2022-10-26T15:29:34.997Z,3.20
2022-10-26T15:32:03.067Z,2.95
2022-10-26T15:34:29.886Z,2.65
2022-10-26T15:36:56.818Z,3.50
2022-10-26T15:39:25.485Z,3.50
2022-10-26T15:41:53.567Z,2.53
2022-10-26T15:44:22.003Z,3.08
2022-10-26T15:46:50.096Z,2.67
2022-10-26T15:49:20.120Z,2.80
2022-10-26T15:51:48.422Z,2.80
2022-10-26T15:54:15.966Z,2.67
2022-10-26T15:56:47.714Z,3.10
2022-10-26T15:59:17.473Z,2.23
2022-10-26T16:01:44.681Z,2.67
2022-10-26T16:04:14.355Z,3.30
2022-10-26T16:06:42.174Z,3.20
2022-10-26T16:09:16.013Z,3.33
2022-10-26T16:11:43.556Z,3.00
2022-10-26T16:14:11.103Z,3.20
2022-10-26T16:16:38.909Z,2.88
2022-10-26T16:19:29.123Z,2.85
2022-10-26T16:21:52.545Z,3.40
2022-10-26T16:24:19.602Z,3.40
2022-10-26T16:26:46.508Z,3.40
2022-10-26T16:29:13.464Z,2.92
2022-10-26T16:31:40.229Z,3.10
2022-10-26T16:34:07.024Z,3.17
2022-10-26T16:36:34.532Z,3.20
2022-10-26T16:41:29.216Z,3.97
2022-10-26T16:43:56.500Z,3.47
2022-10-26T16:46:23.821Z,5.20
2022-10-26T16:48:51.888Z,9.23
2022-10-26T16:51:27.381Z,6.53
2022-10-26T16:53:55.845Z,4.05
2022-10-26T16:56:25.750Z,4.53
2022-10-26T16:58:52.932Z,4.07
2022-10-26T17:01:21.202Z,3.70
2022-10-26T17:03:50.191Z,4.25
2022-10-26T17:06:18.193Z,4.73
2022-10-26T17:08:45.470Z,4.40
2022-10-26T17:11:18.301Z,3.55
2022-10-26T17:13:45.970Z,3.88
2022-10-26T17:16:21.076Z,3.80
2022-10-26T17:18:48.339Z,3.30
2022-10-26T17:21:17.941Z,3.30
2022-10-26T17:23:44.882Z,3.00
2022-10-26T17:26:14.400Z,3.05
2022-10-26T17:28:41.372Z,2.80
2022-10-26T17:31:13.491Z,3.13
2022-10-26T17:33:45.032Z,2.88
2022-10-26T17:36:13.473Z,2.33
2022-10-26T17:38:41.794Z,2.85
2022-10-26T17:41:11.653Z,2.80
2022-10-26T17:43:39.869Z,3.00
2022-10-26T17:46:22.997Z,2.50
2022-10-26T17:48:56.475Z,2.58
2022-10-26T17:51:23.852Z,2.53
2022-10-26T17:53:51.283Z,2.70
2022-10-26T17:56:19.522Z,2.70
2022-10-26T17:58:54.912Z,3.00
2022-10-26T18:01:21.988Z,3.08
2022-10-26T18:03:49.633Z,3.10
2022-10-26T18:06:19.583Z,3.90
2022-10-26T18:08:46.877Z,2.80
2022-10-26T18:11:25.287Z,3.67
2022-10-26T18:13:57.340Z,2.67
2022-10-26T18:16:25.797Z,2.80
2022-10-26T18:19:00.472Z,2.70
2022-10-26T18:21:28.638Z,3.05
2022-10-26T18:23:55.962Z,2.40
2022-10-26T18:26:26.110Z,2.50
2022-10-26T18:28:53.305Z,2.65
2022-10-26T18:31:22.550Z,2.88
2022-10-26T18:33:49.492Z,2.20
2022-10-26T18:36:18.421Z,2.70
2022-10-26T18:38:47.331Z,2.80
2022-10-26T18:41:15.897Z,2.88
2022-10-26T18:43:49.355Z,2.50
2022-10-26T18:46:20.800Z,2.60
2022-10-26T18:48:48.526Z,2.55
2022-10-26T18:51:17.923Z,2.60
2022-10-26T18:53:49.312Z,2.70
2022-10-26T18:56:18.425Z,2.57
2022-10-26T18:58:48.600Z,2.60
2022-10-26T19:01:15.562Z,2.60
2022-10-26T19:03:44.080Z,2.42
2022-10-26T19:06:22.423Z,2.10
2022-10-26T19:08:49.258Z,2.40
2022-10-26T19:11:17.835Z,2.20
2022-10-26T19:13:44.859Z,2.15
2022-10-26T19:16:33.243Z,2.33
2022-10-26T19:19:10.418Z,3.30
2022-10-26T19:21:37.436Z,2.47
2022-10-26T19:24:04.680Z,3.13
2022-10-26T19:26:36.004Z,2.58
2022-10-26T19:29:07.255Z,2.30
2022-10-26T19:31:35.699Z,2.42
2022-10-26T19:34:03.277Z,2.33
2022-10-26T19:36:30.421Z,2.35
2022-10-26T19:38:57.246Z,2.13
2022-10-26T19:41:26.595Z,2.33
2022-10-26T19:46:32.573Z,2.60
2022-10-26T19:49:01.617Z,2.22
2022-10-26T19:51:31.247Z,2.20
2022-10-26T19:54:07.073Z,2.60
2022-10-26T19:56:36.301Z,2.00
2022-10-26T19:59:03.896Z,2.10
2022-10-26T20:01:30.978Z,2.15
2022-10-26T20:03:57.857Z,2.17
2022-10-26T20:06:24.802Z,2.13
2022-10-26T20:08:51.924Z,2.05
2022-10-26T20:11:19.541Z,2.08
2022-10-26T20:13:47.699Z,2.10
2022-10-26T20:16:16.569Z,2.20
2022-10-26T20:18:47.595Z,2.08
2022-10-26T20:21:17.355Z,2.38
2022-10-26T20:23:44.994Z,2.20
2022-10-26T20:26:18.221Z,2.30
2022-10-26T20:28:48.238Z,2.30
2022-10-26T20:31:15.328Z,2.40
2022-10-26T20:33:42.050Z,2.20
2022-10-26T20:36:09.033Z,1.90
2022-10-26T20:38:36.312Z,2.40
2022-10-26T20:41:06.328Z,2.00
2022-10-26T20:43:38.905Z,2.17
2022-10-26T20:46:06.717Z,2.20
2022-10-26T20:48:38.514Z,2.30
2022-10-26T20:51:15.478Z,2.47
2022-10-26T20:53:54.864Z,2.72
2022-10-26T20:56:27.608Z,2.10
2022-10-26T20:58:56.997Z,2.20
2022-10-26T21:01:32.706Z,2.10
2022-10-26T21:04:02.316Z,2.40
2022-10-26T21:06:29.469Z,2.42
2022-10-26T21:08:57.013Z,2.60
2022-10-26T21:11:26.627Z,2.40
2022-10-26T21:13:54.659Z,2.80
2022-10-26T21:18:53.573Z,2.22
2022-10-26T21:21:20.509Z,2.40
2022-10-26T21:23:47.414Z,2.00
2022-10-26T21:26:14.195Z,2.00
2022-10-26T21:28:45.746Z,2.15
2022-10-26T21:31:14.622Z,2.10
2022-10-26T21:33:41.637Z,2.40
2022-10-26T21:36:12.054Z,1.80
2022-10-26T21:38:39.836Z,2.08
2022-10-26T21:41:09.436Z,2.50
2022-10-26T21:43:37.466Z,2.22
2022-10-26T21:46:05.015Z,1.75
2022-10-26T21:48:33.152Z,2.00
2022-10-26T21:51:05.560Z,2.28
2022-10-26T21:53:32.460Z,2.00
2022-10-26T21:56:07.908Z,2.20
2022-10-26T21:58:34.590Z,2.22
2022-10-26T22:01:12.529Z,2.17
2022-10-26T22:03:40.224Z,2.00
2022-10-26T22:06:08.286Z,2.30
2022-10-26T22:08:35.561Z,2.10
2022-10-26T22:11:08.632Z,2.20
2022-10-26T22:13:37.745Z,2.17
2022-10-26T22:16:13.136Z,2.28
2022-10-26T22:18:44.021Z,1.90
2022-10-26T22:21:12.068Z,2.50
2022-10-26T22:23:40.796Z,2.15
2022-10-26T22:26:10.697Z,2.40
2022-10-26T22:28:41.753Z,1.90
2022-10-26T22:31:16.795Z,2.20
2022-10-26T22:33:44.240Z,2.55
2022-10-26T22:36:13.683Z,2.15
2022-10-26T22:38:41.101Z,1.95
2022-10-26T22:41:09.396Z,2.30
2022-10-26T22:43:36.476Z,2.25
2022-10-26T22:46:04.997Z,2.30
2022-10-26T22:48:32.819Z,2.10
2022-10-26T22:51:04.705Z,2.35
2022-10-26T22:53:31.605Z,2.33
2022-10-26T22:55:58.452Z,2.20
2022-10-26T22:58:25.181Z,2.30
2022-10-26T23:00:51.930Z,2.00
2022-10-26T23:03:18.817Z,2.25
2022-10-26T23:05:47.343Z,2.00
2022-10-26T23:08:14.432Z,2.57
2022-10-26T23:10:41.371Z,2.13
2022-10-26T23:13:08.129Z,2.20
2022-10-26T23:15:35.049Z,2.40
2022-10-26T23:18:01.749Z,2.08
2022-10-26T23:20:28.533Z,2.10
2022-10-26T23:22:55.232Z,2.50
2022-10-26T23:25:21.976Z,2.40
2022-10-26T23:27:48.664Z,2.50
2022-10-26T23:30:17.201Z,2.30
2022-10-26T23:32:44.137Z,2.30
2022-10-26T23:35:11.077Z,2.30
2022-10-26T23:37:37.906Z,2.33
2022-10-26T23:40:05.141Z,2.20
2022-10-26T23:42:31.827Z,2.20
2022-10-26T23:44:58.676Z,2.22
2022-10-26T23:47:25.348Z,2.00
2022-10-26T23:49:52.421Z,2.42
2022-10-26T23:52:19.259Z,2.53
2022-10-26T23:54:46.004Z,2.20
2022-10-26T23:57:12.744Z,2.47
2022-10-26T23:59:39.444Z,2.70
